sensor_id;sensor_type;location;lat;lon;timestamp;pressure;altitude;pressure_sealevel;temperature;humidity
58690;BME280;44470;53.206;-6.106;2023-07-13T00:02:05;101292.97;;;20.87;60.95
58690;BME280;44470;53.206;-6.106;2023-07-13T00:04:30;101295.69;;;20.86;61.03
58690;BME280;44470;53.206;-6.106;2023-07-13T00:06:56;101297.47;;;20.87;61.20
58690;BME280;44470;53.206;-6.106;2023-07-13T00:09:21;101290.34;;;20.86;60.95
58690;BME280;44470;53.206;-6.106;2023-07-13T00:11:50;101298.38;;;20.86;61.14
58690;BME280;44470;53.206;-6.106;2023-07-13T00:14:16;101301.03;;;20.86;60.83
58690;BME280;44470;53.206;-6.106;2023-07-13T00:16:41;101298.34;;;20.87;61.04
58690;BME280;44470;53.206;-6.106;2023-07-13T00:19:09;101305.50;;;20.85;60.90
58690;BME280;44470;53.206;-6.106;2023-07-13T00:21:34;101303.72;;;20.86;61.07
58690;BME280;44470;53.206;-6.106;2023-07-13T00:24:00;101303.72;;;20.86;60.99
58690;BME280;44470;53.206;-6.106;2023-07-13T00:26:26;101302.81;;;20.85;61.14
58690;BME280;44470;53.206;-6.106;2023-07-13T00:28:51;101304.59;;;20.86;60.76
58690;BME280;44470;53.206;-6.106;2023-07-13T00:31:17;101303.72;;;20.86;61.07
58690;BME280;44470;53.206;-6.106;2023-07-13T00:33:42;101301.91;;;20.86;60.79
58690;BME280;44470;53.206;-6.106;2023-07-13T00:36:08;101305.50;;;20.87;60.99
58690;BME280;44470;53.206;-6.106;2023-07-13T00:38:33;101305.50;;;20.87;61.26
58690;BME280;44470;53.206;-6.106;2023-07-13T00:40:59;101299.25;;;20.86;61.17
58690;BME280;44470;53.206;-6.106;2023-07-13T00:43:26;101303.72;;;20.86;60.88
58690;BME280;44470;53.206;-6.106;2023-07-13T00:48:19;101301.03;;;20.86;61.24
58690;BME280;44470;53.206;-6.106;2023-07-13T00:50:46;101293.94;;;20.85;61.24
58690;BME280;44470;53.206;-6.106;2023-07-13T00:53:14;101296.59;;;20.85;61.15
58690;BME280;44470;53.206;-6.106;2023-07-13T00:55:40;101297.47;;;20.85;60.99
58690;BME280;44470;53.206;-6.106;2023-07-13T00:58:06;101295.69;;;20.86;60.95
58690;BME280;44470;53.206;-6.106;2023-07-13T01:00:33;101298.38;;;20.86;61.16
58690;BME280;44470;53.206;-6.106;2023-07-13T01:02:59;101291.25;;;20.85;61.17
58690;BME280;44470;53.206;-6.106;2023-07-13T01:05:26;101287.66;;;20.86;61.03
58690;BME280;44470;53.206;-6.106;2023-07-13T01:07:53;101286.78;;;20.85;60.92
58690;BME280;44470;53.206;-6.106;2023-07-13T01:10:21;101285.91;;;20.85;61.12
58690;BME280;44470;53.206;-6.106;2023-07-13T01:12:46;101282.31;;;20.86;61.13
58690;BME280;44470;53.206;-6.106;2023-07-13T01:17:57;101282.31;;;20.86;60.95
58690;BME280;44470;53.206;-6.106;2023-07-13T01:20:24;101279.66;;;20.86;60.75
58690;BME280;44470;53.206;-6.106;2023-07-13T01:22:50;101287.66;;;20.86;61.02
58690;BME280;44470;53.206;-6.106;2023-07-13T01:25:16;101275.19;;;20.85;61.05
58690;BME280;44470;53.206;-6.106;2023-07-13T01:27:42;101279.66;;;20.84;60.61
58690;BME280;44470;53.206;-6.106;2023-07-13T01:30:08;101283.22;;;20.85;60.59
58690;BME280;44470;53.206;-6.106;2023-07-13T01:32:34;101281.41;;;20.85;60.73
58690;BME280;44470;53.206;-6.106;2023-07-13T01:34:59;101280.56;;;20.85;60.70
58690;BME280;44470;53.206;-6.106;2023-07-13T01:37:25;101275.19;;;20.85;60.58
58690;BME280;44470;53.206;-6.106;2023-07-13T01:39:51;101280.56;;;20.85;60.91
58690;BME280;44470;53.206;-6.106;2023-07-13T01:42:16;101289.44;;;20.85;60.61
58690;BME280;44470;53.206;-6.106;2023-07-13T01:44:42;101293.03;;;20.86;60.62
58690;BME280;44470;53.206;-6.106;2023-07-13T01:47:08;101284.13;;;20.84;60.64
58690;BME280;44470;53.206;-6.106;2023-07-13T01:49:33;101289.47;;;20.84;60.89
58690;BME280;44470;53.206;-6.106;2023-07-13T01:51:59;101283.22;;;20.85;60.91
58690;BME280;44470;53.206;-6.106;2023-07-13T01:54:24;101285.00;;;20.86;60.69
58690;BME280;44470;53.206;-6.106;2023-07-13T01:56:50;101279.66;;;20.84;60.54
58690;BME280;44470;53.206;-6.106;2023-07-13T01:59:15;101276.06;;;20.85;60.80
58690;BME280;44470;53.206;-6.106;2023-07-13T02:01:41;101276.06;;;20.85;60.64
58690;BME280;44470;53.206;-6.106;2023-07-13T02:04:06;101278.78;;;20.84;60.55
58690;BME280;44470;53.206;-6.106;2023-07-13T02:06:32;101268.94;;;20.84;60.77
58690;BME280;44470;53.206;-6.106;2023-07-13T02:08:58;101268.09;;;20.84;60.97
58690;BME280;44470;53.206;-6.106;2023-07-13T02:11:23;101271.63;;;20.86;60.85
58690;BME280;44470;53.206;-6.106;2023-07-13T02:13:50;101271.63;;;20.84;60.51
58690;BME280;44470;53.206;-6.106;2023-07-13T02:16:15;101268.94;;;20.84;60.88
58690;BME280;44470;53.206;-6.106;2023-07-13T02:18:41;101269.84;;;20.85;60.73
58690;BME280;44470;53.206;-6.106;2023-07-13T02:21:06;101269.84;;;20.85;60.70
58690;BME280;44470;53.206;-6.106;2023-07-13T02:23:31;101275.19;;;20.85;60.80
58690;BME280;44470;53.206;-6.106;2023-07-13T02:25:57;101269.84;;;20.85;60.95
58690;BME280;44470;53.206;-6.106;2023-07-13T02:28:22;101268.94;;;20.84;60.76
58690;BME280;44470;53.206;-6.106;2023-07-13T02:30:48;101268.94;;;20.84;60.70
58690;BME280;44470;53.206;-6.106;2023-07-13T02:33:14;101267.19;;;20.85;60.69
58690;BME280;44470;53.206;-6.106;2023-07-13T02:35:39;101275.19;;;20.85;60.78
58690;BME280;44470;53.206;-6.106;2023-07-13T02:38:05;101267.19;;;20.85;60.73
58690;BME280;44470;53.206;-6.106;2023-07-13T02:40:31;101273.38;;;20.85;60.55
58690;BME280;44470;53.206;-6.106;2023-07-13T02:42:58;101276.97;;;20.86;60.88
58690;BME280;44470;53.206;-6.106;2023-07-13T02:45:23;101269.84;;;20.85;60.90
58690;BME280;44470;53.206;-6.106;2023-07-13T02:47:49;101274.31;;;20.84;60.64
58690;BME280;44470;53.206;-6.106;2023-07-13T02:50:14;101276.09;;;20.84;60.66
58690;BME280;44470;53.206;-6.106;2023-07-13T02:52:39;101278.78;;;20.84;60.65
58690;BME280;44470;53.206;-6.106;2023-07-13T02:55:05;101275.19;;;20.85;60.49
58690;BME280;44470;53.206;-6.106;2023-07-13T02:57:30;101268.94;;;20.84;60.74
58690;BME280;44470;53.206;-6.106;2023-07-13T02:59:58;101280.56;;;20.85;60.54
58690;BME280;44470;53.206;-6.106;2023-07-13T03:02:24;101276.06;;;20.85;60.54
58690;BME280;44470;53.206;-6.106;2023-07-13T03:04:50;101279.66;;;20.84;60.41
58690;BME280;44470;53.206;-6.106;2023-07-13T03:07:16;101285.00;;;20.84;60.59
58690;BME280;44470;53.206;-6.106;2023-07-13T03:09:43;101276.97;;;20.84;60.65
58690;BME280;44470;53.206;-6.106;2023-07-13T03:12:08;101276.06;;;20.85;60.76
58690;BME280;44470;53.206;-6.106;2023-07-13T03:14:35;101277.88;;;20.85;60.62
58690;BME280;44470;53.206;-6.106;2023-07-13T03:17:03;101272.53;;;20.83;60.60
58690;BME280;44470;53.206;-6.106;2023-07-13T03:19:31;101276.97;;;20.84;60.47
58690;BME280;44470;53.206;-6.106;2023-07-13T03:21:56;101272.53;;;20.83;60.50
58690;BME280;44470;53.206;-6.106;2023-07-13T03:24:22;101271.63;;;20.84;60.32
58690;BME280;44470;53.206;-6.106;2023-07-13T03:26:50;101268.09;;;20.84;60.56
58690;BME280;44470;53.206;-6.106;2023-07-13T03:29:17;101262.72;;;20.84;60.28
58690;BME280;44470;53.206;-6.106;2023-07-13T03:31:43;101269.84;;;20.85;60.47
58690;BME280;44470;53.206;-6.106;2023-07-13T03:34:08;101267.19;;;20.83;60.63
58690;BME280;44470;53.206;-6.106;2023-07-13T03:36:35;101259.16;;;20.83;60.58
58690;BME280;44470;53.206;-6.106;2023-07-13T03:39:04;101262.72;;;20.84;60.36
58690;BME280;44470;53.206;-6.106;2023-07-13T03:41:44;101272.53;;;20.83;60.45
58690;BME280;44470;53.206;-6.106;2023-07-13T03:44:11;101274.34;;;20.83;60.52
58690;BME280;44470;53.206;-6.106;2023-07-13T03:46:36;101277.88;;;20.85;60.26
58690;BME280;44470;53.206;-6.106;2023-07-13T03:49:01;101284.13;;;20.84;60.29
58690;BME280;44470;53.206;-6.106;2023-07-13T03:51:27;101274.34;;;20.83;60.65
58690;BME280;44470;53.206;-6.106;2023-07-13T03:53:52;101284.13;;;20.84;60.53
58690;BME280;44470;53.206;-6.106;2023-07-13T03:56:19;101278.78;;;20.84;60.42
58690;BME280;44470;53.206;-6.106;2023-07-13T03:58:45;101273.44;;;20.84;60.64
58690;BME280;44470;53.206;-6.106;2023-07-13T04:01:18;101273.44;;;20.84;60.21
58690;BME280;44470;53.206;-6.106;2023-07-13T04:03:43;101268.09;;;20.84;60.38
58690;BME280;44470;53.206;-6.106;2023-07-13T04:06:13;101276.09;;;20.84;60.31
58690;BME280;44470;53.206;-6.106;2023-07-13T04:08:40;101277.88;;;20.83;60.38
58690;BME280;44470;53.206;-6.106;2023-07-13T04:11:06;101279.69;;;20.83;60.23
58690;BME280;44470;53.206;-6.106;2023-07-13T04:13:32;101293.94;;;20.83;60.37
58690;BME280;44470;53.206;-6.106;2023-07-13T04:15:57;101284.13;;;20.84;60.67
58690;BME280;44470;53.206;-6.106;2023-07-13T04:18:23;101289.47;;;20.84;60.55
58690;BME280;44470;53.206;-6.106;2023-07-13T04:20:48;101293.94;;;20.83;60.31
58690;BME280;44470;53.206;-6.106;2023-07-13T04:23:14;101299.28;;;20.83;60.58
58690;BME280;44470;53.206;-6.106;2023-07-13T04:25:43;101298.41;;;20.83;60.66
58690;BME280;44470;53.206;-6.106;2023-07-13T04:28:08;101302.88;;;20.84;60.60
58690;BME280;44470;53.206;-6.106;2023-07-13T04:30:34;101296.63;;;20.83;60.52
58690;BME280;44470;53.206;-6.106;2023-07-13T04:32:59;101297.53;;;20.82;60.30
58690;BME280;44470;53.206;-6.106;2023-07-13T04:35:24;101293.94;;;20.83;60.23
58690;BME280;44470;53.206;-6.106;2023-07-13T04:37:50;101291.25;;;20.83;60.30
58690;BME280;44470;53.206;-6.106;2023-07-13T04:40:16;101280.66;;;20.74;60.35
58690;BME280;44470;53.206;-6.106;2023-07-13T04:42:41;101295.75;;;20.83;60.57
58690;BME280;44470;53.206;-6.106;2023-07-13T04:45:07;101297.53;;;20.82;60.70
58690;BME280;44470;53.206;-6.106;2023-07-13T04:47:32;101305.53;;;20.84;60.29
58690;BME280;44470;53.206;-6.106;2023-07-13T04:49:58;101304.63;;;20.83;60.57
58690;BME280;44470;53.206;-6.106;2023-07-13T04:52:23;101305.53;;;20.82;60.20
58690;BME280;44470;53.206;-6.106;2023-07-13T04:54:49;101314.47;;;20.83;60.50
58690;BME280;44470;53.206;-6.106;2023-07-13T04:57:14;101314.47;;;20.83;60.68
58690;BME280;44470;53.206;-6.106;2023-07-13T04:59:39;101312.69;;;20.82;60.54
58690;BME280;44470;53.206;-6.106;2023-07-13T05:02:05;101310.00;;;20.83;60.48
58690;BME280;44470;53.206;-6.106;2023-07-13T05:04:30;101308.22;;;20.82;60.52
58690;BME280;44470;53.206;-6.106;2023-07-13T05:06:56;101310.00;;;20.83;60.23
58690;BME280;44470;53.206;-6.106;2023-07-13T05:09:21;101314.47;;;20.83;60.58
58690;BME280;44470;53.206;-6.106;2023-07-13T05:11:47;101306.44;;;20.83;60.59
58690;BME280;44470;53.206;-6.106;2023-07-13T05:14:12;101314.47;;;20.83;60.10
58690;BME280;44470;53.206;-6.106;2023-07-13T05:16:37;101315.34;;;20.83;60.28
58690;BME280;44470;53.206;-6.106;2023-07-13T05:19:03;101310.03;;;20.82;60.43
58690;BME280;44470;53.206;-6.106;2023-07-13T05:21:28;101316.25;;;20.82;60.38
58690;BME280;44470;53.206;-6.106;2023-07-13T05:23:54;101315.34;;;20.83;60.58
58690;BME280;44470;53.206;-6.106;2023-07-13T05:26:19;101312.69;;;20.82;60.53
58690;BME280;44470;53.206;-6.106;2023-07-13T05:28:46;101318.91;;;20.82;60.29
58690;BME280;44470;53.206;-6.106;2023-07-13T05:31:11;101319.81;;;20.83;60.51
58690;BME280;44470;53.206;-6.106;2023-07-13T05:33:37;101320.72;;;20.82;60.25
58690;BME280;44470;53.206;-6.106;2023-07-13T05:36:02;101325.19;;;20.81;60.39
58690;BME280;44470;53.206;-6.106;2023-07-13T05:38:27;101320.72;;;20.82;60.37
58690;BME280;44470;53.206;-6.106;2023-07-13T05:40:54;101321.59;;;20.82;60.51
58690;BME280;44470;53.206;-6.106;2023-07-13T05:43:20;101329.63;;;20.82;60.45
58690;BME280;44470;53.206;-6.106;2023-07-13T05:45:46;101331.44;;;20.82;60.35
58690;BME280;44470;53.206;-6.106;2023-07-13T05:48:11;101334.09;;;20.82;60.57
58690;BME280;44470;53.206;-6.106;2023-07-13T05:50:36;101327.84;;;20.81;60.50
58690;BME280;44470;53.206;-6.106;2023-07-13T05:53:02;101329.63;;;20.82;60.19
58690;BME280;44470;53.206;-6.106;2023-07-13T05:55:27;101334.97;;;20.82;60.25
58690;BME280;44470;53.206;-6.106;2023-07-13T05:57:53;101331.44;;;20.82;60.49
58690;BME280;44470;53.206;-6.106;2023-07-13T06:00:18;101336.78;;;20.82;60.25
58690;BME280;44470;53.206;-6.106;2023-07-13T06:02:44;101341.22;;;20.83;60.30
58690;BME280;44470;53.206;-6.106;2023-07-13T06:05:09;101340.31;;;20.82;60.59
58690;BME280;44470;53.206;-6.106;2023-07-13T06:07:34;101335.88;;;20.83;60.59
58690;BME280;44470;53.206;-6.106;2023-07-13T06:10:00;101334.09;;;20.82;60.40
58690;BME280;44470;53.206;-6.106;2023-07-13T06:12:25;101339.47;;;20.82;60.43
58690;BME280;44470;53.206;-6.106;2023-07-13T06:14:51;101339.47;;;20.82;60.09
58690;BME280;44470;53.206;-6.106;2023-07-13T06:17:16;101339.47;;;20.82;60.40
58690;BME280;44470;53.206;-6.106;2023-07-13T06:19:42;101345.66;;;20.82;60.56
58690;BME280;44470;53.206;-6.106;2023-07-13T06:22:07;101354.59;;;20.83;60.16
58690;BME280;44470;53.206;-6.106;2023-07-13T06:24:32;101354.59;;;20.81;60.31
58690;BME280;44470;53.206;-6.106;2023-07-13T06:26:58;101349.25;;;20.83;60.39
58690;BME280;44470;53.206;-6.106;2023-07-13T06:29:23;101350.16;;;20.82;60.42
58690;BME280;44470;53.206;-6.106;2023-07-13T06:31:48;101352.84;;;20.82;60.20
58690;BME280;44470;53.206;-6.106;2023-07-13T06:34:14;101355.50;;;20.82;60.55
58690;BME280;44470;53.206;-6.106;2023-07-13T06:36:39;101354.59;;;20.83;60.37
58690;BME280;44470;53.206;-6.106;2023-07-13T06:39:06;101354.59;;;20.83;60.29
58690;BME280;44470;53.206;-6.106;2023-07-13T06:41:31;101352.84;;;20.82;60.42
58690;BME280;44470;53.206;-6.106;2023-07-13T06:43:58;101346.56;;;20.83;60.28
58690;BME280;44470;53.206;-6.106;2023-07-13T06:46:23;101348.34;;;20.84;60.50
58690;BME280;44470;53.206;-6.106;2023-07-13T06:48:49;101351.94;;;20.83;60.65
58690;BME280;44470;53.206;-6.106;2023-07-13T06:51:14;101356.38;;;20.84;60.67
58690;BME280;44470;53.206;-6.106;2023-07-13T06:53:39;101354.56;;;20.84;60.92
58690;BME280;44470;53.206;-6.106;2023-07-13T06:56:05;101356.34;;;20.85;60.80
58690;BME280;44470;53.206;-6.106;2023-07-13T06:58:30;101359.91;;;20.84;60.95
58690;BME280;44470;53.206;-6.106;2023-07-13T07:00:56;101350.09;;;20.85;61.00
58690;BME280;44470;53.206;-6.106;2023-07-13T07:03:21;101350.97;;;20.85;61.20
58690;BME280;44470;53.206;-6.106;2023-07-13T07:05:46;101363.50;;;20.85;61.05
58690;BME280;44470;53.206;-6.106;2023-07-13T07:08:12;101366.16;;;20.85;61.28
58690;BME280;44470;53.206;-6.106;2023-07-13T07:10:37;101367.94;;;20.86;61.21
58690;BME280;44470;53.206;-6.106;2023-07-13T07:13:03;101370.63;;;20.84;61.36
58690;BME280;44470;53.206;-6.106;2023-07-13T07:15:29;101371.50;;;20.85;61.72
58690;BME280;44470;53.206;-6.106;2023-07-13T07:17:54;101376.88;;;20.85;61.58
58690;BME280;44470;53.206;-6.106;2023-07-13T07:20:20;101384.00;;;20.86;61.73
58690;BME280;44470;53.206;-6.106;2023-07-13T07:22:45;101384.00;;;20.86;61.29
58690;BME280;44470;53.206;-6.106;2023-07-13T07:25:11;101376.88;;;20.85;61.44
58690;BME280;44470;53.206;-6.106;2023-07-13T07:27:37;101377.72;;;20.85;61.65
58690;BME280;44470;53.206;-6.106;2023-07-13T07:30:02;101378.63;;;20.86;61.27
58690;BME280;44470;53.206;-6.106;2023-07-13T07:32:28;101376.88;;;20.85;61.60
58690;BME280;44470;53.206;-6.106;2023-07-13T07:34:54;101373.28;;;20.84;61.43
58690;BME280;44470;53.206;-6.106;2023-07-13T07:37:19;101377.72;;;20.85;61.54
58690;BME280;44470;53.206;-6.106;2023-07-13T07:39:44;101374.19;;;20.85;61.43
58690;BME280;44470;53.206;-6.106;2023-07-13T07:42:10;101382.22;;;20.85;61.42
58690;BME280;44470;53.206;-6.106;2023-07-13T07:44:35;101370.69;;;20.80;61.26
58690;BME280;44470;53.206;-6.106;2023-07-13T07:47:01;101384.00;;;20.86;61.76
58690;BME280;44470;53.206;-6.106;2023-07-13T07:49:26;101380.44;;;20.84;61.44
58690;BME280;44470;53.206;-6.106;2023-07-13T07:51:52;101384.91;;;20.85;61.53
58690;BME280;44470;53.206;-6.106;2023-07-13T07:54:17;101387.56;;;20.85;61.53
58690;BME280;44470;53.206;-6.106;2023-07-13T07:56:43;101385.78;;;20.84;61.37
58690;BME280;44470;53.206;-6.106;2023-07-13T07:59:08;101397.38;;;20.84;61.54
58690;BME280;44470;53.206;-6.106;2023-07-13T08:01:33;101391.16;;;20.84;61.60
58690;BME280;44470;53.206;-6.106;2023-07-13T08:03:59;101396.47;;;20.85;61.47
58690;BME280;44470;53.206;-6.106;2023-07-13T08:06:24;101398.28;;;20.85;61.16
58690;BME280;44470;53.206;-6.106;2023-07-13T08:08:50;101393.81;;;20.84;61.56
58690;BME280;44470;53.206;-6.106;2023-07-13T08:11:15;101392.03;;;20.84;61.20
58690;BME280;44470;53.206;-6.106;2023-07-13T08:13:41;101400.03;;;20.84;61.21
58690;BME280;44470;53.206;-6.106;2023-07-13T08:16:06;101393.81;;;20.84;61.16
58690;BME280;44470;53.206;-6.106;2023-07-13T08:18:32;101400.03;;;20.84;61.39
58690;BME280;44470;53.206;-6.106;2023-07-13T08:20:57;101397.38;;;20.84;61.40
58690;BME280;44470;53.206;-6.106;2023-07-13T08:23:24;101408.97;;;20.85;61.44
58690;BME280;44470;53.206;-6.106;2023-07-13T08:25:52;101403.63;;;20.85;61.52
58690;BME280;44470;53.206;-6.106;2023-07-13T08:28:18;101401.84;;;20.84;61.47
58690;BME280;44470;53.206;-6.106;2023-07-13T08:30:44;101400.94;;;20.85;61.15
58690;BME280;44470;53.206;-6.106;2023-07-13T08:33:09;101394.69;;;20.84;61.38
58690;BME280;44470;53.206;-6.106;2023-07-13T08:35:34;101408.97;;;20.85;61.21
58690;BME280;44470;53.206;-6.106;2023-07-13T08:38:00;101399.19;;;20.84;61.03
58690;BME280;44470;53.206;-6.106;2023-07-13T08:40:25;101406.28;;;20.85;61.22
58690;BME280;44470;53.206;-6.106;2023-07-13T08:42:58;101401.84;;;20.84;61.32
58690;BME280;44470;53.206;-6.106;2023-07-13T08:45:28;101393.81;;;20.84;61.21
58690;BME280;44470;53.206;-6.106;2023-07-13T08:47:57;101395.59;;;20.85;61.47
58690;BME280;44470;53.206;-6.106;2023-07-13T08:50:27;101388.47;;;20.84;61.44
58690;BME280;44470;53.206;-6.106;2023-07-13T08:52:54;101392.91;;;20.85;61.52
58690;BME280;44470;53.206;-6.106;2023-07-13T08:55:22;101387.56;;;20.85;61.29
58690;BME280;44470;53.206;-6.106;2023-07-13T08:57:51;101386.66;;;20.84;61.29
58690;BME280;44470;53.206;-6.106;2023-07-13T09:00:18;101386.66;;;20.86;61.46
58690;BME280;44470;53.206;-6.106;2023-07-13T09:02:56;101383.09;;;20.85;61.50
58690;BME280;44470;53.206;-6.106;2023-07-13T09:05:33;101382.22;;;20.85;61.24
58690;BME280;44470;53.206;-6.106;2023-07-13T09:10:43;101379.53;;;20.85;61.44
58690;BME280;44470;53.206;-6.106;2023-07-13T09:15:39;101386.66;;;20.86;61.63
58690;BME280;44470;53.206;-6.106;2023-07-13T09:18:14;101389.34;;;20.86;61.78
58690;BME280;44470;53.206;-6.106;2023-07-13T09:20:46;101386.66;;;20.84;61.66
58690;BME280;44470;53.206;-6.106;2023-07-13T09:23:21;101384.91;;;20.85;61.59
58690;BME280;44470;53.206;-6.106;2023-07-13T09:25:48;101377.72;;;20.85;61.54
58690;BME280;44470;53.206;-6.106;2023-07-13T09:28:23;101376.91;;;20.82;61.89
58690;BME280;44470;53.206;-6.106;2023-07-13T09:30:55;101383.09;;;20.85;61.88
58690;BME280;44470;53.206;-6.106;2023-07-13T09:33:21;101384.00;;;20.86;61.91
58690;BME280;44470;53.206;-6.106;2023-07-13T09:35:48;101394.69;;;20.86;61.79
58690;BME280;44470;53.206;-6.106;2023-07-13T09:38:14;101390.25;;;20.83;62.15
58690;BME280;44470;53.206;-6.106;2023-07-13T09:41:04;101398.22;;;20.86;61.75
58690;BME280;44470;53.206;-6.106;2023-07-13T09:43:26;101405.38;;;20.86;61.97
58690;BME280;44470;53.206;-6.106;2023-07-13T09:45:53;101402.72;;;20.86;61.98
58690;BME280;44470;53.206;-6.106;2023-07-13T09:48:19;101393.78;;;20.85;61.91
58690;BME280;44470;53.206;-6.106;2023-07-13T09:50:45;101398.28;;;20.85;61.84
58690;BME280;44470;53.206;-6.106;2023-07-13T09:53:11;101405.38;;;20.86;62.05
58690;BME280;44470;53.206;-6.106;2023-07-13T09:55:37;101410.75;;;20.86;61.83
58690;BME280;44470;53.206;-6.106;2023-07-13T09:58:09;101400.91;;;20.86;61.94
58690;BME280;44470;53.206;-6.106;2023-07-13T10:00:35;101400.03;;;20.86;62.06
58690;BME280;44470;53.206;-6.106;2023-07-13T10:03:02;101408.06;;;20.84;61.98
58690;BME280;44470;53.206;-6.106;2023-07-13T10:05:34;101406.25;;;20.86;62.21
58690;BME280;44470;53.206;-6.106;2023-07-13T10:08:02;101405.38;;;20.86;62.31
58690;BME280;44470;53.206;-6.106;2023-07-13T10:10:27;101397.31;;;20.87;62.22
58690;BME280;44470;53.206;-6.106;2023-07-13T10:12:53;101400.91;;;20.86;62.13
58690;BME280;44470;53.206;-6.106;2023-07-13T10:15:19;101397.38;;;20.86;62.19
58690;BME280;44470;53.206;-6.106;2023-07-13T10:17:45;101392.00;;;20.86;62.04
58690;BME280;44470;53.206;-6.106;2023-07-13T10:20:11;101400.91;;;20.86;61.97
58690;BME280;44470;53.206;-6.106;2023-07-13T10:25:23;101396.47;;;20.87;61.99
58690;BME280;44470;53.206;-6.106;2023-07-13T10:27:50;101402.72;;;20.86;62.11
58690;BME280;44470;53.206;-6.106;2023-07-13T10:30:21;101413.38;;;20.87;62.00
58690;BME280;44470;53.206;-6.106;2023-07-13T10:32:48;101408.94;;;20.86;62.25
58690;BME280;44470;53.206;-6.106;2023-07-13T10:35:15;101412.50;;;20.87;62.41
58690;BME280;44470;53.206;-6.106;2023-07-13T10:37:51;101411.66;;;20.85;62.39
58690;BME280;44470;53.206;-6.106;2023-07-13T10:40:22;101402.75;;;20.81;61.18
58690;BME280;44470;53.206;-6.106;2023-07-13T10:42:51;101417.94;;;20.81;60.98
58690;BME280;44470;53.206;-6.106;2023-07-13T10:45:20;101421.53;;;20.80;60.12
58690;BME280;44470;53.206;-6.106;2023-07-13T10:47:46;101411.69;;;20.77;59.92
58690;BME280;44470;53.206;-6.106;2023-07-13T10:50:17;101410.84;;;20.76;59.29
58690;BME280;44470;53.206;-6.106;2023-07-13T10:57:53;101388.59;;;20.71;58.71
58690;BME280;44470;53.206;-6.106;2023-07-13T11:00:19;101401.09;;;20.71;58.69
58690;BME280;44470;53.206;-6.106;2023-07-13T11:02:55;101385.94;;;20.71;59.28
58690;BME280;44470;53.206;-6.106;2023-07-13T11:07:54;101393.97;;;20.71;59.89
58690;BME280;44470;53.206;-6.106;2023-07-13T11:13:29;101399.34;;;20.68;60.00
58690;BME280;44470;53.206;-6.106;2023-07-13T11:15:49;101398.44;;;20.66;59.86
58690;BME280;44470;53.206;-6.106;2023-07-13T11:18:20;101384.25;;;20.61;60.39
58690;BME280;44470;53.206;-6.106;2023-07-13T11:20:48;101385.13;;;20.65;60.29
58690;BME280;44470;53.206;-6.106;2023-07-13T11:25:41;101387.75;;;20.66;60.49
58690;BME280;44470;53.206;-6.106;2023-07-13T11:30:36;101391.31;;;20.67;60.92
58690;BME280;44470;53.206;-6.106;2023-07-13T11:41:35;101385.06;;;20.66;61.11
58690;BME280;44470;53.206;-6.106;2023-07-13T11:44:22;101384.22;;;20.64;61.10
58690;BME280;44470;53.206;-6.106;2023-07-13T11:46:49;101384.22;;;20.64;60.95
58690;BME280;44470;53.206;-6.106;2023-07-13T11:49:17;101385.16;;;20.61;60.88
58690;BME280;44470;53.206;-6.106;2023-07-13T11:51:43;101386.06;;;20.60;61.19
58690;BME280;44470;53.206;-6.106;2023-07-13T11:54:19;101386.97;;;20.59;61.06
58690;BME280;44470;53.206;-6.106;2023-07-13T11:56:48;101389.63;;;20.59;60.81
58690;BME280;44470;53.206;-6.106;2023-07-13T11:59:14;101394.09;;;20.59;60.47
58690;BME280;44470;53.206;-6.106;2023-07-13T12:01:44;101391.44;;;20.57;60.63
58690;BME280;44470;53.206;-6.106;2023-07-13T12:04:18;101389.66;;;20.58;60.27
58690;BME280;44470;53.206;-6.106;2023-07-13T12:06:47;101390.53;;;20.57;60.08
58690;BME280;44470;53.206;-6.106;2023-07-13T12:09:18;101386.97;;;20.58;59.75
58690;BME280;44470;53.206;-6.106;2023-07-13T12:11:45;101386.09;;;20.57;59.29
58690;BME280;44470;53.206;-6.106;2023-07-13T12:14:14;101378.94;;;20.58;59.00
58690;BME280;44470;53.206;-6.106;2023-07-13T12:16:40;101381.63;;;20.58;58.94
58690;BME280;44470;53.206;-6.106;2023-07-13T12:19:09;101375.38;;;20.59;59.30
58690;BME280;44470;53.206;-6.106;2023-07-13T12:21:41;101370.97;;;20.55;59.86
58690;BME280;44470;53.206;-6.106;2023-07-13T12:24:13;101385.16;;;20.61;59.92
58690;BME280;44470;53.206;-6.106;2023-07-13T12:26:39;101372.66;;;20.64;60.53
58690;BME280;44470;53.206;-6.106;2023-07-13T12:29:05;101377.06;;;20.66;60.25
58690;BME280;44470;53.206;-6.106;2023-07-13T12:31:34;101377.97;;;20.67;60.42
58690;BME280;44470;53.206;-6.106;2023-07-13T12:34:01;101361.03;;;20.63;60.44
58690;BME280;44470;53.206;-6.106;2023-07-13T12:36:29;101369.94;;;20.68;60.59
58690;BME280;44470;53.206;-6.106;2023-07-13T12:38:55;101372.56;;;20.70;60.96
58690;BME280;44470;53.206;-6.106;2023-07-13T12:41:21;101378.81;;;20.70;60.94
58690;BME280;44470;53.206;-6.106;2023-07-13T12:43:48;101368.13;;;20.70;61.15
58690;BME280;44470;53.206;-6.106;2023-07-13T12:48:41;101375.22;;;20.71;60.88
58690;BME280;44470;53.206;-6.106;2023-07-13T12:51:09;101376.09;;;20.72;60.76
58690;BME280;44470;53.206;-6.106;2023-07-13T12:53:38;101378.78;;;20.73;60.61
58690;BME280;44470;53.206;-6.106;2023-07-13T12:56:05;101376.09;;;20.73;60.89
58690;BME280;44470;53.206;-6.106;2023-07-13T12:58:38;101366.25;;;20.74;60.73
58690;BME280;44470;53.206;-6.106;2023-07-13T13:01:04;101368.94;;;20.74;60.93
58690;BME280;44470;53.206;-6.106;2023-07-13T13:03:34;101362.72;;;20.73;60.61
58690;BME280;44470;53.206;-6.106;2023-07-13T13:06:04;101364.50;;;20.73;60.81
58690;BME280;44470;53.206;-6.106;2023-07-13T13:08:34;101362.69;;;20.75;60.99
58690;BME280;44470;53.206;-6.106;2023-07-13T13:11:03;101359.13;;;20.74;60.81
58690;BME280;44470;53.206;-6.106;2023-07-13T13:13:28;101349.31;;;20.75;60.60
58690;BME280;44470;53.206;-6.106;2023-07-13T13:15:54;101351.97;;;20.75;60.77
58690;BME280;44470;53.206;-6.106;2023-07-13T13:18:20;101352.88;;;20.75;61.01